Time;durP1;ratioP1;P1;durP2;ratioP2;P2;SDS_P1;SDS_P2;PMS_P1;PMS_P2;Temp;Humidity;BMP_temperature;BMP_pressure;BME280_temperature;BME280_humidity;BME280_pressure;Samples;Min_cycle;Max_cycle;Signal;HPM_P1;HPM_P2
2022/09/18 00:06:58;;;;;;;0.20;0.00;;;19.90;99.90;;;;;;26004917;22;20295;-72
2022/09/18 00:17:03;;;;;;;0.20;0.00;;;20.00;99.90;;;;;;26030982;22;20195;-72
2022/09/18 00:27:11;;;;;;;0.20;0.10;;;19.80;99.90;;;;;;26030612;22;20181;-72
2022/09/18 00:37:16;;;;;;;0.20;0.00;;;19.60;99.90;;;;;;26036022;22;20240;-72
2022/09/18 00:47:25;;;;;;;0.20;0.00;;;19.50;99.90;;;;;;26012944;22;20164;-71
2022/09/18 00:57:32;;;;;;;0.20;0.10;;;19.40;99.90;;;;;;26040138;22;20216;-70
2022/09/18 01:07:48;;;;;;;0.20;0.10;;;19.50;99.90;;;;;;26039093;22;20240;-69
2022/09/18 01:18:02;;;;;;;0.20;0.00;;;19.20;99.90;;;;;;26041177;22;20251;-72
2022/09/18 01:28:16;;;;;;;0.20;0.00;;;19.10;99.90;;;;;;26014699;22;20182;-71
2022/09/18 01:38:26;;;;;;;0.20;0.10;;;19.00;99.90;;;;;;26014927;22;20254;-71
2022/09/18 01:48:33;;;;;;;0.20;0.10;;;18.90;99.90;;;;;;26045650;22;20648;-71
2022/09/18 01:58:37;;;;;;;0.20;0.10;;;18.90;99.90;;;;;;26042990;22;20255;-71
2022/09/18 02:08:47;;;;;;;0.20;0.00;;;18.90;99.90;;;;;;26017692;22;20239;-73
2022/09/18 02:18:55;;;;;;;0.20;0.00;;;18.50;99.90;;;;;;26044367;22;20262;-71
2022/09/18 02:29:02;;;;;;;0.20;0.10;;;18.40;99.90;;;;;;26015789;22;20220;-73
2022/09/18 02:39:20;;;;;;;0.20;0.10;;;18.40;99.90;;;;;;26043517;22;20798;-71
2022/09/18 02:49:36;;;;;;;0.20;0.00;;;18.20;99.90;;;;;;26019231;22;20283;-72
2022/09/18 02:59:44;;;;;;;0.20;0.10;;;18.20;99.90;;;;;;26043249;22;20226;-72
2022/09/18 03:09:50;;;;;;;0.20;0.10;;;18.10;99.90;;;;;;26015260;22;20251;-72
2022/09/18 03:19:53;;;;;;;0.20;0.00;;;17.80;99.90;;;;;;26015397;22;20207;-72
2022/09/18 03:29:58;;;;;;;0.20;0.10;;;17.90;99.90;;;;;;26041191;22;20687;-72
2022/09/18 03:40:02;;;;;;;0.20;0.10;;;17.70;99.90;;;;;;26016944;22;20195;-72
2022/09/18 03:50:08;;;;;;;0.20;0.10;;;17.90;99.90;;;;;;26016610;22;20203;-71
2022/09/18 04:00:13;;;;;;;0.20;0.10;;;17.90;99.90;;;;;;26040726;22;20218;-72
2022/09/18 04:10:21;;;;;;;0.20;0.10;;;17.80;99.90;;;;;;26015198;22;20226;-71
2022/09/18 04:20:25;;;;;;;0.20;0.10;;;17.60;99.90;;;;;;26031671;22;20228;-72
2022/09/18 04:30:30;;;;;;;0.20;0.10;;;17.60;99.90;;;;;;26034536;22;20224;-70
2022/09/18 04:40:34;;;;;;;0.20;0.10;;;17.50;99.90;;;;;;26038528;22;20206;-72
2022/09/18 04:50:39;;;;;;;0.20;0.10;;;17.30;99.90;;;;;;26040847;22;20883;-72
2022/09/18 05:00:42;;;;;;;0.20;0.10;;;17.30;99.90;;;;;;26011933;22;20205;-71
2022/09/18 05:10:47;;;;;;;0.20;0.10;;;17.50;99.90;;;;;;26040495;22;20198;-71
2022/09/18 05:20:52;;;;;;;0.20;0.10;;;17.80;99.90;;;;;;26040198;22;20209;-71
2022/09/18 05:31:00;;;;;;;0.20;0.10;;;18.00;99.90;;;;;;26021594;22;20186;-72
2022/09/18 05:41:04;;;;;;;0.20;0.00;;;18.00;99.90;;;;;;26046944;22;20184;-71
2022/09/18 05:51:09;;;;;;;0.20;0.10;;;17.90;99.90;;;;;;26047554;22;20188;-70
2022/09/18 06:01:13;;;;;;;0.20;0.00;;;17.90;99.90;;;;;;26020005;22;20410;-68
2022/09/18 06:11:18;;;;;;;0.20;0.10;;;18.20;99.90;;;;;;26044532;22;20200;-70
2022/09/18 06:21:22;;;;;;;0.20;0.10;;;18.40;99.90;;;;;;26046338;22;20267;-71
2022/09/18 06:31:27;;;;;;;0.20;0.00;;;18.70;99.90;;;;;;26043452;22;20219;-72
2022/09/18 06:41:33;;;;;;;0.20;0.00;;;18.90;99.90;;;;;;26044164;22;20203;-71
2022/09/18 06:51:39;;;;;;;0.20;0.00;;;19.20;99.90;;;;;;26040869;22;20252;-71
2022/09/18 07:01:43;;;;;;;0.20;0.00;;;19.40;99.90;;;;;;25989554;22;20243;-72
2022/09/18 07:11:48;;;;;;;0.20;0.00;;;19.70;99.90;;;;;;26012260;22;20180;-71
2022/09/18 07:21:52;;;;;;;0.20;0.10;;;19.70;99.90;;;;;;26041211;22;20247;-71
2022/09/18 07:31:59;;;;;;;0.20;0.10;;;19.50;99.90;;;;;;26038695;22;20227;-70
2022/09/18 07:42:03;;;;;;;0.20;0.00;;;19.80;99.90;;;;;;26040750;22;20262;-71
2022/09/18 07:52:12;;;;;;;0.20;0.10;;;20.50;99.90;;;;;;26011140;22;20194;-70
2022/09/18 08:02:16;;;;;;;0.20;0.10;;;21.10;99.90;;;;;;26035142;22;20191;-71
2022/09/18 08:12:21;;;;;;;0.20;0.00;;;21.60;99.90;;;;;;26012071;22;20195;-71
2022/09/18 08:22:25;;;;;;;0.20;0.00;;;21.90;99.90;;;;;;26036571;22;20267;-71
2022/09/18 08:32:30;;;;;;;0.20;0.00;;;21.80;99.90;;;;;;26036036;22;20243;-71
2022/09/18 08:42:41;;;;;;;0.20;0.00;;;22.40;99.90;;;;;;26007873;22;20256;-72
2022/09/18 08:52:51;;;;;;;0.20;0.10;;;22.70;99.90;;;;;;26011648;22;20207;-70
2022/09/18 09:03:00;;;;;;;0.20;0.10;;;23.10;99.90;;;;;;26044951;22;20610;-69
2022/09/18 09:13:22;;;;;;;0.20;0.00;;;23.50;99.90;;;;;;26044169;22;20192;-69
2022/09/18 09:23:37;;;;;;;0.20;0.00;;;23.50;99.90;;;;;;26016865;22;20191;-69
2022/09/18 09:33:55;;;;;;;0.20;0.00;;;24.00;99.90;;;;;;26042203;22;20246;-69
2022/09/18 09:44:10;;;;;;;0.20;0.00;;;24.00;99.90;;;;;;26013194;22;20271;-69
2022/09/18 09:54:15;;;;;;;0.20;0.10;;;24.20;99.90;;;;;;25988868;22;20252;-68
2022/09/18 10:04:29;;;;;;;0.20;0.00;;;24.30;99.90;;;;;;26038198;22;20306;-69
2022/09/18 10:14:35;;;;;;;0.20;0.00;;;24.30;99.90;;;;;;26012407;22;20263;-68
2022/09/18 10:24:45;;;;;;;0.20;0.00;;;24.90;99.90;;;;;;26007418;22;20235;-69
2022/09/18 10:34:50;;;;;;;0.20;0.00;;;24.90;99.90;;;;;;26035940;22;20223;-66
2022/09/18 10:44:57;;;;;;;0.20;0.00;;;25.50;99.90;;;;;;26032234;22;20209;-68
2022/09/18 10:55:15;;;;;;;0.20;0.00;;;25.50;99.90;;;;;;26033745;22;20192;-71
2022/09/18 11:05:22;;;;;;;0.20;0.00;;;26.20;99.90;;;;;;26034518;22;20253;-69
2022/09/18 11:15:30;;;;;;;0.20;0.10;;;27.10;99.90;;;;;;26037078;22;20212;-69
2022/09/18 11:25:34;;;;;;;0.20;0.00;;;26.90;99.90;;;;;;26036201;22;20239;-68
2022/09/18 11:35:45;;;;;;;0.20;0.10;;;27.30;99.90;;;;;;26039077;22;20176;-69
2022/09/18 11:45:55;;;;;;;0.20;0.10;;;27.50;99.90;;;;;;26036497;22;20287;-68
2022/09/18 11:56:07;;;;;;;0.20;0.00;;;27.80;99.90;;;;;;26035860;22;20200;-69
2022/09/18 12:06:17;;;;;;;0.20;0.00;;;28.10;99.90;;;;;;26035771;22;20219;-71
2022/09/18 12:16:32;;;;;;;0.20;0.10;;;28.60;99.90;;;;;;26032773;22;20209;-69
2022/09/18 12:26:47;;;;;;;0.20;0.00;;;28.80;99.90;;;;;;26032801;22;20194;-69
2022/09/18 12:37:05;;;;;;;0.20;0.00;;;29.10;99.90;;;;;;26039445;22;20273;-69
2022/09/18 12:47:43;;;;;;;0.20;0.00;;;29.50;99.90;;;;;;26019922;22;20184;-70
2022/09/18 12:58:00;;;;;;;0.20;0.00;;;29.10;99.90;;;;;;26043087;22;20211;-67
2022/09/18 13:08:10;;;;;;;0.20;0.00;;;28.60;99.90;;;;;;26041914;22;20247;-68
2022/09/18 13:18:27;;;;;;;0.20;0.10;;;29.50;99.90;;;;;;26044051;22;20229;-68
2022/09/18 13:28:32;;;;;;;0.20;0.00;;;28.90;99.90;;;;;;26018928;22;20184;-69
2022/09/18 13:38:42;;;;;;;0.20;0.05;;;29.40;99.90;;;;;;26016504;22;20344;-71
2022/09/18 13:48:54;;;;;;;0.20;0.00;;;29.70;99.90;;;;;;26018370;22;20256;-69
2022/09/18 13:58:59;;;;;;;0.20;0.00;;;31.40;99.90;;;;;;25910317;23;20192;-68
2022/09/18 14:09:24;;;;;;;0.20;0.00;;;31.10;99.90;;;;;;25901597;23;20295;-70
2022/09/18 14:19:35;;;;;;;0.20;0.00;;;30.70;99.90;;;;;;25902833;23;20212;-69
2022/09/18 14:29:39;;;;;;;0.20;0.00;;;31.10;99.90;;;;;;25881836;23;20256;-70
2022/09/18 14:39:45;;;;;;;0.20;0.00;;;30.90;99.90;;;;;;25910345;23;20226;-68
2022/09/18 14:49:49;;;;;;;0.20;0.00;;;31.70;99.90;;;;;;25913022;22;20223;-70
2022/09/18 14:59:57;;;;;;;0.20;0.00;;;31.60;99.90;;;;;;26027278;22;20240;-69
2022/09/18 15:10:01;;;;;;;0.20;0.00;;;30.90;99.90;;;;;;26011767;22;20183;-70
2022/09/18 15:20:15;;;;;;;0.20;0.00;;;30.70;99.90;;;;;;26010263;22;20209;-68
2022/09/18 15:30:21;;;;;;;0.20;0.00;;;30.50;99.90;;;;;;26038624;22;20160;-70
2022/09/18 15:40:33;;;;;;;0.20;0.00;;;30.00;99.90;;;;;;26009509;22;20225;-70
2022/09/18 15:50:43;;;;;;;0.20;0.00;;;29.20;99.90;;;;;;26036794;22;20203;-69
2022/09/18 16:00:56;;;;;;;0.20;0.00;;;26.90;99.90;;;;;;26038134;22;20247;-71
2022/09/18 16:11:00;;;;;;;0.20;0.00;;;26.40;99.90;;;;;;26034128;22;20179;-70
2022/09/18 16:21:07;;;;;;;0.20;0.10;;;25.60;99.90;;;;;;26006174;22;20239;-69
2022/09/18 16:31:13;;;;;;;0.20;0.00;;;25.30;99.90;;;;;;26032413;22;20163;-68
2022/09/18 16:41:18;;;;;;;0.20;0.00;;;25.30;99.90;;;;;;26004337;22;20180;-69
2022/09/18 16:51:21;;;;;;;0.20;0.00;;;24.90;99.90;;;;;;26033444;22;20235;-67
2022/09/18 17:01:28;;;;;;;0.20;0.00;;;24.70;99.90;;;;;;26030435;22;20244;-69
2022/09/18 17:11:51;;;;;;;0.20;0.10;;;24.60;99.90;;;;;;26003713;22;20272;-69
2022/09/18 17:21:56;;;;;;;0.20;0.10;;;24.20;99.90;;;;;;26039136;22;20196;-69
2022/09/18 17:32:00;;;;;;;0.20;0.00;;;23.90;99.90;;;;;;26014433;22;20183;-69
2022/09/18 17:42:05;;;;;;;0.20;0.00;;;23.70;99.90;;;;;;26037604;22;20196;-68
2022/09/18 17:52:09;;;;;;;0.20;0.10;;;23.60;99.90;;;;;;26016886;22;20238;-69
2022/09/18 18:02:15;;;;;;;0.20;0.00;;;23.40;99.90;;;;;;25986997;22;20262;-71
2022/09/18 18:12:23;;;;;;;0.20;0.00;;;23.30;99.90;;;;;;26039089;22;20205;-70
2022/09/18 18:22:28;;;;;;;0.20;0.00;;;23.00;99.90;;;;;;26038778;22;20199;-70
2022/09/18 18:32:33;;;;;;;0.20;0.00;;;22.80;99.90;;;;;;26039152;22;20244;-68
2022/09/18 18:42:38;;;;;;;0.20;0.00;;;22.70;99.90;;;;;;26038522;22;20180;-70
2022/09/18 18:52:42;;;;;;;0.20;0.00;;;22.60;99.90;;;;;;25986290;22;20215;-68
2022/09/18 19:02:49;;;;;;;0.20;0.00;;;22.50;99.90;;;;;;26038800;22;20191;-69
2022/09/18 19:12:56;;;;;;;0.20;0.00;;;22.40;99.90;;;;;;26010074;22;20252;-72
2022/09/18 19:23:01;;;;;;;0.20;0.00;;;21.60;99.90;;;;;;26012450;22;20247;-71
2022/09/18 19:33:04;;;;;;;0.20;0.00;;;21.20;99.90;;;;;;26038154;22;20182;-71
2022/09/18 19:43:14;;;;;;;0.20;0.00;;;21.10;99.90;;;;;;26037954;22;20339;-70
2022/09/18 19:53:18;;;;;;;0.20;0.00;;;20.80;99.90;;;;;;26010487;22;20199;-71
2022/09/18 20:03:23;;;;;;;0.20;0.00;;;20.70;99.90;;;;;;26034466;22;20195;-70
2022/09/18 20:13:27;;;;;;;0.20;0.00;;;20.50;99.90;;;;;;26008581;22;20250;-69
2022/09/18 20:23:32;;;;;;;0.20;0.00;;;20.40;99.90;;;;;;26037077;22;20211;-70
2022/09/18 20:33:36;;;;;;;0.20;0.00;;;20.40;99.90;;;;;;26038380;22;20235;-69
2022/09/18 20:43:43;;;;;;;0.20;0.00;;;20.40;99.90;;;;;;26027687;22;20180;-70
2022/09/18 20:53:46;;;;;;;0.20;0.00;;;20.30;99.90;;;;;;26037950;22;20187;-69
2022/09/18 21:03:55;;;;;;;0.20;0.10;;;20.00;99.90;;;;;;26041030;22;20196;-70
2022/09/18 21:14:02;;;;;;;0.20;0.10;;;19.80;99.90;;;;;;26042326;22;20205;-70
2022/09/18 21:24:08;;;;;;;0.20;0.10;;;19.90;99.90;;;;;;26041176;22;20180;-70
2022/09/18 21:34:14;;;;;;;0.20;0.10;;;19.80;99.90;;;;;;26017209;22;20314;-70
2022/09/18 21:44:25;;;;;;;0.20;0.00;;;19.60;99.90;;;;;;26043087;22;20262;-70
2022/09/18 21:54:30;;;;;;;0.20;0.10;;;19.50;99.90;;;;;;26018001;22;20202;-71
2022/09/18 22:04:37;;;;;;;0.20;0.00;;;19.40;99.90;;;;;;26045679;22;20215;-71
2022/09/18 22:14:41;;;;;;;0.20;0.10;;;19.40;99.90;;;;;;26044672;22;20239;-70
2022/09/18 22:24:46;;;;;;;0.20;0.00;;;19.40;99.90;;;;;;26044117;22;20235;-70
2022/09/18 22:34:51;;;;;;;0.20;0.00;;;19.30;99.90;;;;;;26019319;22;20175;-69
2022/09/18 22:44:57;;;;;;;0.20;0.00;;;19.30;99.90;;;;;;26043653;22;20180;-71
2022/09/18 22:55:00;;;;;;;0.20;0.00;;;19.30;99.90;;;;;;26017992;22;20207;-69
2022/09/18 23:05:06;;;;;;;0.20;0.10;;;19.30;99.90;;;;;;26042793;22;20212;-70
2022/09/18 23:15:10;;;;;;;0.20;0.00;;;19.30;99.90;;;;;;26043478;22;20388;-70
2022/09/18 23:25:15;;;;;;;0.20;0.00;;;19.10;99.90;;;;;;26042555;22;20240;-70
2022/09/18 23:35:19;;;;;;;0.20;0.00;;;19.20;99.90;;;;;;26043936;22;20220;-70
2022/09/18 23:45:24;;;;;;;0.20;0.00;;;19.30;99.90;;;;;;26041020;22;20263;-70
2022/09/18 23:55:29;;;;;;;0.20;0.10;;;19.30;99.90;;;;;;26041962;22;20250;-70
